createdAt,value
2022-10-23T00:00:57.016Z,17.37
2022-10-23T00:04:05.648Z,17.38
2022-10-23T00:07:10.894Z,17.36
2022-10-23T00:10:16.819Z,17.37
2022-10-23T00:13:22.020Z,17.39
2022-10-23T00:16:29.254Z,17.41
2022-10-23T00:19:34.865Z,17.40
2022-10-23T00:22:40.764Z,17.40
2022-10-23T00:25:46.263Z,17.44
2022-10-23T00:28:54.558Z,17.32
2022-10-23T00:32:00.231Z,17.27
2022-10-23T00:35:06.925Z,17.33
2022-10-23T00:38:13.338Z,17.33
2022-10-23T00:41:23.912Z,17.29
2022-10-23T00:44:29.350Z,17.35
2022-10-23T00:47:34.681Z,17.28
2022-10-23T00:50:41.036Z,17.20
2022-10-23T00:54:01.070Z,17.24
2022-10-23T00:57:17.387Z,17.19
2022-10-23T01:00:47.674Z,17.18
2022-10-23T01:03:53.469Z,17.15
2022-10-23T01:07:29.295Z,17.24
2022-10-23T01:10:47.531Z,17.25
2022-10-23T01:14:11.292Z,17.21
2022-10-23T01:17:42.482Z,17.21
2022-10-23T01:21:05.337Z,17.24
2022-10-23T01:24:24.699Z,17.21
2022-10-23T01:27:40.337Z,17.17
2022-10-23T01:30:45.702Z,17.17
2022-10-23T01:34:00.067Z,17.17
2022-10-23T01:37:12.771Z,17.19
2022-10-23T01:40:24.951Z,17.21
2022-10-23T01:43:45.117Z,17.19
2022-10-23T01:46:53.031Z,17.17
2022-10-23T01:50:01.479Z,17.22
2022-10-23T01:53:08.177Z,17.09
2022-10-23T01:56:22.949Z,17.17
2022-10-23T01:59:37.812Z,17.08
2022-10-23T02:02:48.470Z,17.02
2022-10-23T02:05:54.245Z,17.04
2022-10-23T02:08:59.919Z,17.08
2022-10-23T02:15:40.822Z,16.95
2022-10-23T02:19:07.896Z,17.06
2022-10-23T02:22:21.573Z,16.99
2022-10-23T02:25:43.415Z,16.96
2022-10-23T02:29:07.689Z,16.91
2022-10-23T02:32:18.451Z,16.90
2022-10-23T02:35:26.660Z,16.87
2022-10-23T02:38:43.788Z,16.88
2022-10-23T02:42:23.835Z,16.78
2022-10-23T02:49:17.726Z,16.78
2022-10-23T02:52:32.586Z,16.80
2022-10-23T02:56:02.688Z,16.78
2022-10-23T02:59:28.960Z,16.73
2022-10-23T03:02:42.957Z,16.76
2022-10-23T03:05:51.490Z,16.70
2022-10-23T03:09:05.937Z,16.60
2022-10-23T03:12:11.879Z,16.54
2022-10-23T03:15:18.461Z,16.66
2022-10-23T03:18:24.765Z,16.61
2022-10-23T03:21:31.417Z,16.68
2022-10-23T03:24:37.235Z,16.66
2022-10-23T03:27:43.205Z,16.67
2022-10-23T03:30:53.493Z,16.59
2022-10-23T03:33:59.736Z,16.61
2022-10-23T03:37:05.157Z,16.48
2022-10-23T03:40:11.211Z,16.43
2022-10-23T03:43:16.627Z,16.45
2022-10-23T03:46:21.964Z,16.55
2022-10-23T03:49:32.289Z,16.44
2022-10-23T03:52:45.094Z,16.37
2022-10-23T03:55:51.567Z,16.41
2022-10-23T03:58:57.114Z,16.38
2022-10-23T04:02:04.756Z,16.33
2022-10-23T04:05:11.298Z,16.25
2022-10-23T04:08:20.181Z,16.38
2022-10-23T04:11:29.440Z,16.36
2022-10-23T04:14:34.782Z,16.32
2022-10-23T04:17:41.886Z,16.23
2022-10-23T04:20:51.801Z,16.35
2022-10-23T04:23:57.220Z,16.26
2022-10-23T04:27:03.561Z,16.38
2022-10-23T04:30:09.756Z,16.36
2022-10-23T04:33:16.538Z,16.38
2022-10-23T04:36:22.115Z,16.39
2022-10-23T04:39:27.215Z,16.30
2022-10-23T04:42:31.895Z,16.37
2022-10-23T04:45:40.516Z,16.37
2022-10-23T04:48:47.447Z,16.30
2022-10-23T04:51:58.824Z,16.28
2022-10-23T04:55:25.993Z,16.27
2022-10-23T04:58:47.230Z,16.30
2022-10-23T05:01:52.713Z,16.25
2022-10-23T05:04:58.527Z,16.30
2022-10-23T05:08:17.078Z,16.16
2022-10-23T05:11:42.204Z,16.15
2022-10-23T05:14:48.076Z,16.11
2022-10-23T05:17:59.237Z,15.93
2022-10-23T05:21:15.173Z,15.83
2022-10-23T05:24:20.334Z,15.76
2022-10-23T05:27:33.866Z,15.80
2022-10-23T05:30:41.111Z,15.58
2022-10-23T05:33:46.546Z,15.66
2022-10-23T05:36:53.302Z,15.66
2022-10-23T05:40:01.708Z,15.63
2022-10-23T05:43:08.461Z,15.55
2022-10-23T05:46:44.691Z,15.46
2022-10-23T05:50:15.655Z,15.50
2022-10-23T05:53:47.024Z,15.57
2022-10-23T05:57:06.076Z,15.54
2022-10-23T06:00:21.961Z,15.54
2022-10-23T06:03:39.417Z,15.54
2022-10-23T06:06:49.006Z,15.40
2022-10-23T06:09:55.869Z,15.49
2022-10-23T06:13:01.210Z,15.47
2022-10-23T06:16:12.852Z,15.60
2022-10-23T06:19:18.057Z,15.51
2022-10-23T06:22:25.536Z,15.56
2022-10-23T06:25:53.998Z,15.26
2022-10-23T06:29:04.653Z,15.28
2022-10-23T06:32:10.283Z,15.48
2022-10-23T06:35:17.189Z,15.46
2022-10-23T06:38:23.424Z,15.41
2022-10-23T06:41:33.570Z,15.47
2022-10-23T06:44:38.716Z,15.55
2022-10-23T06:47:51.523Z,15.68
2022-10-23T06:50:59.904Z,15.77
2022-10-23T06:54:13.578Z,15.76
2022-10-23T06:57:37.494Z,15.57
2022-10-23T07:00:44.817Z,15.59
2022-10-23T07:03:50.427Z,15.76
2022-10-23T07:07:00.369Z,15.88
2022-10-23T07:13:30.293Z,16.45
2022-10-23T07:16:49.096Z,16.54
2022-10-23T07:19:54.155Z,16.64
2022-10-23T07:22:59.141Z,16.56
2022-10-23T07:26:15.881Z,16.65
2022-10-23T07:29:23.434Z,16.75
2022-10-23T07:32:29.314Z,16.80
2022-10-23T07:35:53.627Z,16.83
2022-10-23T07:39:05.551Z,17.00
2022-10-23T07:42:15.290Z,17.07
2022-10-23T07:45:20.987Z,17.11
2022-10-23T07:48:27.976Z,17.19
2022-10-23T07:51:37.057Z,17.25
2022-10-23T07:54:43.200Z,17.39
2022-10-23T07:57:57.598Z,17.56
2022-10-23T08:01:23.777Z,17.57
2022-10-23T08:04:28.990Z,17.74
2022-10-23T08:07:42.860Z,17.85
2022-10-23T08:10:51.371Z,18.02
2022-10-23T08:14:08.580Z,18.15
2022-10-23T08:17:14.787Z,18.19
2022-10-23T08:20:40.674Z,18.29
2022-10-23T08:23:47.500Z,18.43
2022-10-23T08:26:53.444Z,18.62
2022-10-23T08:30:02.554Z,18.81
2022-10-23T08:33:08.518Z,18.82
2022-10-23T08:36:20.661Z,18.86
2022-10-23T08:39:27.365Z,18.82
2022-10-23T08:43:11.605Z,18.90
2022-10-23T08:46:35.073Z,18.94
2022-10-23T08:50:35.353Z,19.04
2022-10-23T08:53:53.856Z,19.10
2022-10-23T08:57:16.367Z,19.36
2022-10-23T09:00:22.046Z,19.47
2022-10-23T09:03:27.837Z,19.56
2022-10-23T09:06:45.558Z,19.63
2022-10-23T09:10:29.606Z,19.60
2022-10-23T09:14:01.722Z,19.66
2022-10-23T09:17:30.400Z,19.78
2022-10-23T09:20:36.679Z,19.83
2022-10-23T09:23:42.959Z,19.89
2022-10-23T09:26:51.985Z,19.92
2022-10-23T09:30:00.599Z,19.93
2022-10-23T09:33:18.986Z,19.96
2022-10-23T09:36:30.485Z,20.06
2022-10-23T09:39:37.448Z,20.11
2022-10-23T09:43:04.548Z,20.27
2022-10-23T09:46:12.333Z,20.13
2022-10-23T09:49:22.748Z,20.20
2022-10-23T09:52:36.541Z,20.20
2022-10-23T09:55:42.264Z,20.34
2022-10-23T09:59:04.888Z,20.39
2022-10-23T10:02:28.738Z,20.53
2022-10-23T10:06:04.639Z,20.52
2022-10-23T10:09:15.935Z,20.59
2022-10-23T10:12:59.388Z,20.55
2022-10-23T10:16:11.112Z,20.59
2022-10-23T10:19:27.643Z,20.57
2022-10-23T10:22:41.602Z,20.70
2022-10-23T10:26:02.869Z,20.69
2022-10-23T10:29:26.319Z,20.87
2022-10-23T10:32:56.040Z,20.82
2022-10-23T10:36:31.258Z,20.68
2022-10-23T10:39:46.625Z,20.79
2022-10-23T10:43:14.537Z,20.96
2022-10-23T10:47:07.587Z,21.00
2022-10-23T10:50:53.555Z,20.90
2022-10-23T10:54:28.981Z,21.11
2022-10-23T10:57:40.363Z,21.20
2022-10-23T11:00:50.942Z,21.29
2022-10-23T11:04:23.252Z,21.31
2022-10-23T11:07:38.570Z,21.31
2022-10-23T11:10:51.434Z,21.52
2022-10-23T11:13:57.831Z,21.38
2022-10-23T11:17:27.888Z,21.47
2022-10-23T11:20:36.334Z,21.53
2022-10-23T11:24:18.736Z,21.53
2022-10-23T11:27:52.048Z,21.51
2022-10-23T11:31:49.834Z,21.64
2022-10-23T11:35:23.659Z,21.61
2022-10-23T11:38:32.585Z,21.79
2022-10-23T11:41:48.048Z,21.82
2022-10-23T11:44:53.607Z,21.80
2022-10-23T11:48:18.796Z,22.00
2022-10-23T11:51:33.220Z,22.07
2022-10-23T11:54:38.373Z,21.96
2022-10-23T11:57:47.023Z,22.05
2022-10-23T12:01:42.071Z,22.02
2022-10-23T12:04:50.379Z,21.97
2022-10-23T12:07:59.431Z,21.86
2022-10-23T12:11:05.848Z,21.82
2022-10-23T12:14:32.011Z,21.99
2022-10-23T12:17:40.681Z,22.04
2022-10-23T12:20:54.999Z,22.05
2022-10-23T12:24:24.951Z,22.02
2022-10-23T12:27:46.304Z,22.20
2022-10-23T12:31:06.445Z,22.32
2022-10-23T12:35:07.208Z,22.35
2022-10-23T12:38:23.542Z,22.32
2022-10-23T12:41:34.410Z,22.39
2022-10-23T12:44:39.847Z,22.42
2022-10-23T12:47:47.164Z,22.47
2022-10-23T12:50:55.936Z,22.58
2022-10-23T12:54:03.204Z,22.41
2022-10-23T12:57:30.443Z,22.21
2022-10-23T13:00:35.926Z,22.30
2022-10-23T13:03:41.923Z,22.11
2022-10-23T13:06:49.299Z,22.03
2022-10-23T13:09:55.631Z,21.79
2022-10-23T13:13:08.016Z,21.82
2022-10-23T13:16:27.307Z,21.78
2022-10-23T13:19:33.072Z,21.85
2022-10-23T13:22:41.174Z,21.97
2022-10-23T13:26:04.684Z,22.07
2022-10-23T13:32:30.919Z,22.17
2022-10-23T13:35:37.606Z,22.12
2022-10-23T13:38:46.418Z,22.10
2022-10-23T13:41:53.026Z,22.08
2022-10-23T13:44:58.350Z,22.04
2022-10-23T13:48:09.942Z,22.05
2022-10-23T13:51:20.417Z,22.11
2022-10-23T13:57:38.378Z,22.05
2022-10-23T14:00:47.929Z,21.98
2022-10-23T14:03:55.189Z,21.98
2022-10-23T14:07:00.311Z,21.98
2022-10-23T14:10:06.236Z,21.93
2022-10-23T14:13:11.447Z,21.94
2022-10-23T14:16:19.432Z,21.91
2022-10-23T14:19:24.326Z,21.90
2022-10-23T14:22:29.792Z,21.94
2022-10-23T14:25:35.354Z,21.95
2022-10-23T14:28:41.035Z,21.98
2022-10-23T14:31:46.594Z,21.97
2022-10-23T14:34:54.755Z,21.99
2022-10-23T14:38:00.771Z,21.96
2022-10-23T14:41:15.559Z,21.99
2022-10-23T14:44:20.915Z,21.97
2022-10-23T14:47:26.068Z,21.98
2022-10-23T14:50:34.389Z,21.99
2022-10-23T14:53:39.836Z,22.01
2022-10-23T14:56:45.032Z,21.92
2022-10-23T14:59:50.396Z,21.94
2022-10-23T15:02:55.520Z,21.95
2022-10-23T15:06:00.609Z,21.99
2022-10-23T15:09:05.843Z,22.01
2022-10-23T15:12:11.224Z,21.89
2022-10-23T15:15:16.859Z,21.93
2022-10-23T15:18:22.828Z,21.90
2022-10-23T15:21:28.008Z,21.85
2022-10-23T15:24:33.329Z,21.79
2022-10-23T15:27:38.616Z,21.75
2022-10-23T15:30:45.862Z,21.73
2022-10-23T15:33:51.046Z,21.70
2022-10-23T15:36:57.604Z,21.67
2022-10-23T15:40:03.929Z,21.58
2022-10-23T15:43:12.986Z,21.57
2022-10-23T15:46:18.394Z,21.56
2022-10-23T15:49:25.090Z,21.48
2022-10-23T15:52:30.810Z,21.39
2022-10-23T15:55:36.480Z,21.29
2022-10-23T15:58:41.998Z,21.26
2022-10-23T16:01:48.582Z,21.16
2022-10-23T16:04:53.399Z,21.09
2022-10-23T16:07:58.873Z,21.02
2022-10-23T16:11:05.333Z,20.90
2022-10-23T16:14:17.428Z,20.79
2022-10-23T16:17:24.516Z,20.68
2022-10-23T16:20:30.143Z,20.56
2022-10-23T16:23:35.765Z,20.47
2022-10-23T16:26:41.498Z,20.53
2022-10-23T16:29:47.472Z,20.42
2022-10-23T16:32:55.203Z,20.32
2022-10-23T16:36:09.022Z,20.25
2022-10-23T16:39:36.261Z,20.18
2022-10-23T16:43:00.863Z,20.06
2022-10-23T16:46:22.123Z,20.06
2022-10-23T16:49:30.140Z,19.99
2022-10-23T16:52:35.609Z,19.98
2022-10-23T16:55:41.207Z,19.92
2022-10-23T16:58:47.128Z,19.84
2022-10-23T17:01:53.702Z,19.80
2022-10-23T17:04:59.322Z,19.70
2022-10-23T17:08:05.160Z,19.71
2022-10-23T17:11:33.205Z,19.71
2022-10-23T17:14:39.397Z,19.67
2022-10-23T17:17:44.711Z,19.60
2022-10-23T17:20:57.628Z,19.58
2022-10-23T17:27:13.764Z,19.33
2022-10-23T17:30:19.386Z,19.32
2022-10-23T17:33:25.694Z,19.32
2022-10-23T17:36:33.434Z,19.38
2022-10-23T17:39:40.733Z,19.38
2022-10-23T17:42:46.315Z,19.31
2022-10-23T17:45:51.857Z,19.33
2022-10-23T17:48:59.824Z,19.22
2022-10-23T17:52:05.316Z,19.12
2022-10-23T17:55:11.343Z,19.13
2022-10-23T17:58:16.821Z,19.13
2022-10-23T18:01:26.125Z,19.05
2022-10-23T18:04:31.921Z,19.03
2022-10-23T18:07:37.549Z,18.87
2022-10-23T18:10:43.338Z,18.83
2022-10-23T18:13:50.794Z,18.70
2022-10-23T18:16:56.243Z,18.72
2022-10-23T18:20:02.339Z,18.72
2022-10-23T18:23:08.510Z,18.62
2022-10-23T18:26:22.945Z,18.67
2022-10-23T18:29:28.476Z,18.48
2022-10-23T18:32:33.964Z,18.60
2022-10-23T18:35:39.132Z,18.52
2022-10-23T18:38:44.804Z,18.59
2022-10-23T18:41:54.464Z,18.53
2022-10-23T18:44:59.865Z,18.52
2022-10-23T18:48:06.844Z,18.53
2022-10-23T18:51:22.059Z,18.53
2022-10-23T18:54:27.840Z,18.52
2022-10-23T18:57:34.380Z,18.47
2022-10-23T19:00:42.451Z,18.49
2022-10-23T19:03:48.644Z,18.52
2022-10-23T19:06:54.542Z,18.49
2022-10-23T19:10:01.178Z,18.45
2022-10-23T19:13:07.984Z,18.49
2022-10-23T19:16:26.977Z,18.51
2022-10-23T19:19:43.498Z,18.46
2022-10-23T19:22:53.145Z,18.46
2022-10-23T19:25:59.138Z,18.48
2022-10-23T19:29:08.811Z,18.34
2022-10-23T19:32:15.752Z,18.31
2022-10-23T19:35:23.119Z,18.19
2022-10-23T19:38:29.784Z,18.24
2022-10-23T19:41:36.623Z,18.22
2022-10-23T19:44:43.256Z,18.29
2022-10-23T19:47:49.303Z,18.15
2022-10-23T19:50:55.147Z,18.10
2022-10-23T19:54:02.140Z,18.14
2022-10-23T19:57:08.849Z,17.97
2022-10-23T20:00:17.295Z,18.10
2022-10-23T20:03:23.712Z,18.06
2022-10-23T20:06:36.016Z,18.04
2022-10-23T20:09:43.149Z,17.93
2022-10-23T20:12:56.554Z,17.90
2022-10-23T20:16:08.861Z,17.88
2022-10-23T20:22:27.943Z,17.86
2022-10-23T20:25:34.089Z,17.90
2022-10-23T20:28:40.014Z,17.92
2022-10-23T20:31:45.621Z,17.87
2022-10-23T20:34:51.085Z,17.83
2022-10-23T20:37:56.866Z,17.76
2022-10-23T20:41:06.219Z,17.80
2022-10-23T20:44:14.277Z,17.78
2022-10-23T20:47:20.065Z,17.80
2022-10-23T20:50:25.873Z,17.85
2022-10-23T20:53:31.977Z,17.75
2022-10-23T20:56:39.449Z,17.64
2022-10-23T20:59:45.387Z,17.58
2022-10-23T21:02:52.536Z,17.57
2022-10-23T21:06:17.291Z,17.29
2022-10-23T21:09:22.753Z,17.37
2022-10-23T21:12:28.448Z,17.25
2022-10-23T21:15:33.884Z,17.40
2022-10-23T21:18:45.988Z,17.46
2022-10-23T21:21:53.071Z,17.31
2022-10-23T21:25:00.664Z,17.14
2022-10-23T21:28:07.971Z,17.23
2022-10-23T21:31:14.044Z,17.29
2022-10-23T21:34:19.361Z,17.19
2022-10-23T21:37:25.976Z,17.15
2022-10-23T21:40:31.474Z,17.19
2022-10-23T21:43:37.080Z,17.25
2022-10-23T21:46:42.680Z,17.25
2022-10-23T21:49:48.251Z,17.27
2022-10-23T21:52:53.810Z,17.15
2022-10-23T21:56:05.613Z,17.26
2022-10-23T21:59:14.118Z,17.16
2022-10-23T22:02:19.801Z,17.19
2022-10-23T22:05:25.303Z,17.23
2022-10-23T22:08:32.187Z,17.36
2022-10-23T22:11:38.284Z,17.30
2022-10-23T22:14:43.774Z,17.29
2022-10-23T22:17:49.217Z,17.22
2022-10-23T22:21:01.378Z,17.18
2022-10-23T22:24:08.113Z,17.22
2022-10-23T22:27:13.647Z,17.17
2022-10-23T22:30:19.423Z,16.89
2022-10-23T22:33:25.279Z,16.99
2022-10-23T22:36:30.545Z,16.82
2022-10-23T22:39:36.188Z,16.78
2022-10-23T22:42:41.925Z,16.87
2022-10-23T22:45:47.580Z,16.72
2022-10-23T22:48:53.337Z,16.85
2022-10-23T22:51:59.170Z,16.85
2022-10-23T22:55:05.215Z,16.86
2022-10-23T22:58:10.906Z,16.87
2022-10-23T23:01:30.271Z,16.74
2022-10-23T23:04:38.216Z,16.74
2022-10-23T23:07:44.811Z,16.60
2022-10-23T23:10:55.411Z,16.63
2022-10-23T23:14:01.459Z,16.68
2022-10-23T23:17:08.463Z,16.40
2022-10-23T23:20:13.826Z,16.27
2022-10-23T23:23:19.994Z,16.43
2022-10-23T23:26:25.389Z,16.58
2022-10-23T23:29:31.289Z,16.57
2022-10-23T23:32:37.329Z,16.57
2022-10-23T23:35:45.611Z,16.61
2022-10-23T23:38:52.549Z,16.63
2022-10-23T23:41:58.024Z,16.59
2022-10-23T23:45:14.151Z,16.37
2022-10-23T23:48:20.783Z,16.54
2022-10-23T23:51:26.402Z,16.56
2022-10-23T23:54:32.324Z,16.52
2022-10-23T23:57:38.172Z,16.54
